^^
Your Local Weather - Clay, NY Station Historical Data
Daily Summary for February 27, 2018 Units:  Metric    English   Both
« Previous Day
Next Day »
Daily Weekly Monthly Yearly Custom
  High: Low: Average:
Temperature: 12.9 °C -3.9 °C 4.6 °C
Dew Point: 0.6 °C -6.6 °C -3.3 °C
Humidity: 88% 34% 59%
Wind Speed: 9.7km/h 0km/h 1.9km/h
Wind Gust: 17.7km/h - -
Wind- - WSW
Pressure: 1026.3 hPa 1017.2 hPa -
Precipitation: 0 mm    
Historical Graphs
 
 
Tabular Data for February 27, 2018
Time Temperature Dew Point Pressure Wind Wind Speed Wind Gust Humidity Rainfall Rate (Hourly) solar
00:04 0.8 °C -5.4 °C 1024.9 hPa Calm   3.2 km/h 63% 0 mm 0 W/m2
00:10 0.8 °C -5.3 °C 1024.9 hPa Calm     64% 0 mm 0 W/m2
00:16 0.7 °C -5.4 °C 1024.9 hPa Calm   1.6 km/h 64% 0 mm 0 W/m2
00:22 0.6 °C -5.5 °C 1024.9 hPa Calm   1.6 km/h 64% 0 mm 0 W/m2
00:28 0.5 °C -5.3 °C 1024.9 hPa West 1.6 km/h 1.6 km/h 65% 0 mm 0 W/m2
00:34 0.6 °C -5.5 °C 1025.3 hPa West 1.6 km/h 1.6 km/h 64% 0 mm 0 W/m2
00:40 0.5 °C -5.6 °C 1025.3 hPa West 1.6 km/h 1.6 km/h 64% 0 mm 0 W/m2
00:46 0.4 °C -5.6 °C 1025.3 hPa Calm   1.6 km/h 64% 0 mm 0 W/m2
00:52 0.4 °C -5.4 °C 1025.3 hPa Calm     65% 0 mm 0 W/m2
00:58 0.3 °C -5.6 °C 1025.3 hPa Calm   3.2 km/h 65% 0 mm 0 W/m2
01:04 0.3 °C -5.7 °C 1025.3 hPa Calm     64% 0 mm 0 W/m2
01:10 0.2 °C -5.7 °C 1025.3 hPa Calm     65% 0 mm 0 W/m2
01:16 0.1 °C -5.7 °C 1025.3 hPa Calm     65% 0 mm 0 W/m2
01:22 -0.1 °C -5.7 °C 1025.3 hPa Calm     66% 0 mm 0 W/m2
01:28 -0.2 °C -5.8 °C 1025.3 hPa Calm   1.6 km/h 66% 0 mm 0 W/m2
01:34 -0.1 °C -5.9 °C 1025.3 hPa West 1.6 km/h 1.6 km/h 65% 0 mm 0 W/m2
01:40 0.1 °C -5.7 °C 1025.3 hPa West 1.6 km/h 3.2 km/h 65% 0 mm 0 W/m2
01:46 0.1 °C -5.9 °C 1025.3 hPa West 1.6 km/h 3.2 km/h 64% 0 mm 0 W/m2
01:52 0 °C -6 °C 1025.3 hPa Calm     64% 0 mm 0 W/m2
01:58 0 °C -6 °C 1025.3 hPa West 1.6 km/h 1.6 km/h 64% 0 mm 0 W/m2
02:04 -0.1 °C -6.1 °C 1025.3 hPa Calm   1.6 km/h 64% 0 mm 0 W/m2
02:10 -0.1 °C -6.1 °C 1025.3 hPa Calm     64% 0 mm 0 W/m2
02:16 -0.2 °C -6.2 °C 1025.3 hPa West 1.6 km/h 1.6 km/h 64% 0 mm 0 W/m2
02:22 -0.2 °C -6 °C 1025.3 hPa Calm   1.6 km/h 65% 0 mm 0 W/m2
02:28 -0.3 °C -6.1 °C 1025.3 hPa Calm   1.6 km/h 65% 0 mm 0 W/m2
02:34 -0.3 °C -6.1 °C 1025.3 hPa Calm   1.6 km/h 65% 0 mm 0 W/m2
02:40 -0.2 °C -6 °C 1025.3 hPa WSW 1.6 km/h 3.2 km/h 65% 0 mm 0 W/m2
02:46 -0.2 °C -5.9 °C 1025.3 hPa WSW 1.6 km/h 3.2 km/h 65% 0 mm 0 W/m2
02:52 -0.1 °C -6.1 °C 1025.3 hPa WSW 1.6 km/h 1.6 km/h 64% 0 mm 0 W/m2
02:58 -0.2 °C -6.2 °C 1025.3 hPa Calm   1.6 km/h 64% 0 mm 0 W/m2
03:04 -0.3 °C -6.3 °C 1025.3 hPa Calm     64% 0 mm 0 W/m2
03:10 -0.4 °C -6.2 °C 1025.3 hPa Calm     65% 0 mm 0 W/m2
03:16 -0.6 °C -6.2 °C 1025.3 hPa Calm     66% 0 mm 0 W/m2
03:26 -1.1 °C -6.2 °C 1025.3 hPa Calm     68% 0 mm 0 W/m2
03:32 -1.3 °C -6.5 °C 1025.3 hPa Calm     68% 0 mm 0 W/m2
03:38 -1.6 °C -6.5 °C 1025.3 hPa Calm     69% 0 mm 0 W/m2
03:44 -1.7 °C -6.4 °C 1025.3 hPa Calm     70% 0 mm 0 W/m2
03:50 -1.7 °C -6.5 °C 1025.3 hPa Calm     70% 0 mm 0 W/m2
04:00 -1.8 °C -6.4 °C 1025.3 hPa Calm     71% 0 mm 0 W/m2
04:06 -1.7 °C -6.3 °C 1025.3 hPa Calm     71% 0 mm 0 W/m2
04:12 -1.7 °C -6.2 °C 1025.3 hPa Calm     71% 0 mm 0 W/m2
04:18 -1.7 °C -6.4 °C 1025.3 hPa Calm     70% 0 mm 0 W/m2
04:24 -1.7 °C -6.5 °C 1025.3 hPa Calm     70% 0 mm 0 W/m2
04:30 -1.8 °C -6.6 °C 1025.3 hPa Calm     70% 0 mm 0 W/m2
04:36 -2 °C -6.6 °C 1025.3 hPa Calm     71% 0 mm 0 W/m2
04:42 -2.2 °C -6.6 °C 1025.3 hPa Calm     72% 0 mm 0 W/m2
04:48 -2.2 °C -6.4 °C 1025.3 hPa Calm     73% 0 mm 0 W/m2
04:54 -2.4 °C -6.4 °C 1025.3 hPa Calm     74% 0 mm 0 W/m2
05:00 -2.6 °C -6.4 °C 1025.3 hPa Calm     75% 0 mm 0 W/m2
05:06 -2.7 °C -6.5 °C 1025.6 hPa Calm     75% 0 mm 0 W/m2
05:12 -2.8 °C -6.5 °C 1025.6 hPa Calm     76% 0 mm 0 W/m2
05:18 -2.9 °C -6.3 °C 1025.6 hPa Calm     77% 0 mm 0 W/m2
05:24 -2.9 °C -6.2 °C 1026 hPa Calm     78% 0 mm 0 W/m2
05:30 -3 °C -6.1 °C 1025.6 hPa Calm     79% 0 mm 0 W/m2
05:36 -3.1 °C -5.8 °C 1025.6 hPa Calm     81% 0 mm 0 W/m2
05:42 -3.1 °C -5.7 °C 1025.6 hPa Calm     82% 0 mm 0 W/m2
05:48 -3.2 °C -5.7 °C 1025.6 hPa Calm     83% 0 mm 0 W/m2
05:54 -3.3 °C -5.8 °C 1025.6 hPa Calm     83% 0 mm 0 W/m2
06:00 -3.5 °C -5.9 °C 1025.6 hPa Calm     83% 0 mm 0 W/m2
06:06 -3.7 °C -6.1 °C 1025.6 hPa Calm     83% 0 mm 0 W/m2
06:12 -3.8 °C -6.3 °C 1025.6 hPa Calm     83% 0 mm 0 W/m2
06:18 -3.9 °C -6.2 °C 1025.6 hPa Calm     84% 0 mm 0 W/m2
06:24 -3.9 °C -6.2 °C 1026 hPa Calm     84% 0 mm 0 W/m2
06:30 -3.9 °C -6.2 °C 1026 hPa Calm     84% 0 mm 0 W/m2
06:36 -3.9 °C -6.1 °C 1026 hPa Calm     85% 0 mm 0 W/m2
06:42 -3.9 °C -6.1 °C 1026 hPa Calm     85% 0 mm 5 W/m2
06:48 -3.7 °C -5.7 °C 1025.6 hPa Calm     86% 0 mm 7 W/m2
06:54 -3.6 °C -5.6 °C 1026 hPa Calm     86% 0 mm 9 W/m2
07:00 -3.5 °C -5.5 °C 1025.6 hPa Calm     86% 0 mm 12 W/m2
07:06 -3.4 °C -5.4 °C 1026 hPa Calm     86% 0 mm 14 W/m2
07:12 -3.4 °C -5.3 °C 1026 hPa Calm     87% 0 mm 18 W/m2
07:18 -3.4 °C -5.3 °C 1026 hPa Calm     87% 0 mm 25 W/m2
07:24 -3.4 °C -5.3 °C 1026 hPa Calm     87% 0 mm 28 W/m2
07:30 -3.4 °C -5.2 °C 1026.3 hPa Calm     87% 0 mm 40 W/m2
07:36 -3.3 °C -5.1 °C 1026.3 hPa Calm     87% 0 mm 74 W/m2
07:42 -3.1 °C -4.8 °C 1026.3 hPa Calm     88% 0 mm 74 W/m2
07:48 -2.9 °C -4.6 °C 1026.3 hPa Calm     88% 0 mm 70 W/m2
07:56 -2.6 °C -4.3 °C 1026.3 hPa Calm     88% 0 mm 60 W/m2
08:02 -2.2 °C -3.9 °C 1026.3 hPa Calm     88% 0 mm 91 W/m2
08:08 -1.7 °C -3.4 °C 1026.3 hPa Calm     88% 0 mm 137 W/m2
08:14 -1.2 °C -3.1 °C 1026.3 hPa Calm     87% 0 mm 171 W/m2
08:20 -0.7 °C -2.6 °C 1026.3 hPa Calm     87% 0 mm 211 W/m2
08:26 0 °C -2.1 °C 1026.3 hPa Calm     86% 0 mm 186 W/m2
08:32 0.6 °C -1.6 °C 1026.3 hPa Calm     85% 0 mm 206 W/m2
08:38 1.1 °C -1.3 °C 1026.3 hPa Calm   1.6 km/h 84% 0 mm 232 W/m2
08:44 1.6 °C -1.2 °C 1026.3 hPa Calm   1.6 km/h 82% 0 mm 258 W/m2
08:50 2.5 °C -1.3 °C 1026 hPa Calm     76% 0 mm 290 W/m2
08:56 3.4 °C -2.1 °C 1026.3 hPa Calm     67% 0 mm 359 W/m2
09:02 4.4 °C -2.5 °C 1026 hPa Calm     61% 0 mm 378 W/m2
09:08 4.9 °C -2.2 °C 1026 hPa Calm     60% 0 mm 392 W/m2
09:14 5.5 °C -2.1 °C 1026 hPa Calm     58% 0 mm 406 W/m2
09:20 6.1 °C -1.8 °C 1026 hPa Calm     57% 0 mm 415 W/m2
09:26 6.8 °C -1.4 °C 1026 hPa Calm   3.2 km/h 56% 0 mm 431 W/m2
09:32 7.3 °C -2.2 °C 1026 hPa Calm   1.6 km/h 51% 0 mm 450 W/m2
09:38 7.8 °C -1.2 °C 1026 hPa Calm   1.6 km/h 53% 0 mm 468 W/m2
09:44 7.4 °C -2.1 °C 1026 hPa SW 1.6 km/h 4.8 km/h 51% 0 mm 482 W/m2
09:50 7.6 °C -2.2 °C 1026 hPa West 3.2 km/h 3.2 km/h 50% 0 mm 497 W/m2
09:56 7.8 °C -2.3 °C 1025.6 hPa NW 3.2 km/h 6.4 km/h 49% 0 mm 510 W/m2
10:02 8.1 °C -1.8 °C 1025.6 hPa West 3.2 km/h 8 km/h 50% 0 mm 519 W/m2
10:08 8.1 °C -2.1 °C 1025.6 hPa WSW 3.2 km/h 8 km/h 49% 0 mm 533 W/m2
10:14 8.4 °C -1.7 °C 1025.6 hPa WSW 3.2 km/h 6.4 km/h 49% 0 mm 543 W/m2
10:20 8.9 °C -1 °C 1025.6 hPa West 1.6 km/h 4.8 km/h 50% 0 mm 555 W/m2
10:26 8.7 °C -1.2 °C 1025.6 hPa WNW 3.2 km/h 6.4 km/h 50% 0 mm 568 W/m2
10:32 8.7 °C -1.4 °C 1025.3 hPa WNW 4.8 km/h 12.9 km/h 49% 0 mm 578 W/m2
10:38 9 °C -1.7 °C 1025.3 hPa WNW 4.8 km/h 12.9 km/h 47% 0 mm 585 W/m2
10:46 9.2 °C -1 °C 1025.3 hPa SW 3.2 km/h 3.2 km/h 49% 0 mm 601 W/m2
10:52 9.3 °C -0.6 °C 1025.3 hPa West 3.2 km/h 6.4 km/h 50% 0 mm 608 W/m2
10:58 9.7 °C 0.1 °C 1024.9 hPa West 3.2 km/h 4.8 km/h 51% 0 mm 619 W/m2
11:04 9.7 °C -1.4 °C 1024.9 hPa SW 3.2 km/h 8 km/h 46% 0 mm 626 W/m2
11:10 10 °C 0.1 °C 1024.9 hPa WSW 3.2 km/h 4.8 km/h 50% 0 mm 629 W/m2
11:16 9.7 °C -1.1 °C 1024.9 hPa SW 3.2 km/h 6.4 km/h 47% 0 mm 636 W/m2
11:22 9.9 °C -1.2 °C 1024.9 hPa WSW 6.4 km/h 9.7 km/h 46% 0 mm 642 W/m2
11:28 9.8 °C -0.7 °C 1024.6 hPa South 6.4 km/h 11.3 km/h 48% 0 mm 645 W/m2
11:34 10.2 °C -0.9 °C 1024.6 hPa WSW 4.8 km/h 4.8 km/h 46% 0 mm 649 W/m2
11:40 10.3 °C 0.3 °C 1024.3 hPa SW 4.8 km/h 4.8 km/h 50% 0 mm 656 W/m2
11:46 10.8 °C -0.1 °C 1024.3 hPa WSW 4.8 km/h 8 km/h 47% 0 mm 656 W/m2
11:52 10.9 °C -0.8 °C 1024.3 hPa WSW 4.8 km/h 4.8 km/h 44% 0 mm 661 W/m2
11:58 11.1 °C -0.8 °C 1024.3 hPa SW 4.8 km/h 9.7 km/h 44% 0 mm 659 W/m2
12:04 11.4 °C -0.4 °C 1023.9 hPa SW 4.8 km/h 8 km/h 44% 0 mm 663 W/m2
12:10 11.2 °C -1.2 °C 1023.9 hPa West 4.8 km/h 6.4 km/h 42% 0 mm 661 W/m2
12:16 11.1 °C -0.7 °C 1023.9 hPa West 6.4 km/h 6.4 km/h 44% 0 mm 657 W/m2
12:22 11.2 °C 0.3 °C 1023.9 hPa WSW 6.4 km/h 8 km/h 47% 0 mm 657 W/m2
12:28 11.4 °C -0.4 °C 1023.9 hPa WSW 6.4 km/h 8 km/h 44% 0 mm 656 W/m2
12:34 11.3 °C 0.1 °C 1023.6 hPa SW 8 km/h 11.3 km/h 46% 0 mm 652 W/m2
12:40 11.8 °C 0.2 °C 1023.6 hPa WSW 6.4 km/h 6.4 km/h 45% 0 mm 657 W/m2
12:46 11.7 °C -0.4 °C 1023.2 hPa West 6.4 km/h 17.7 km/h 43% 0 mm 650 W/m2
12:52 11.7 °C -0.2 °C 1023.2 hPa WNW 8 km/h 16.1 km/h 44% 0 mm 657 W/m2
12:58 11.9 °C 0.1 °C 1023.2 hPa West 8 km/h 16.1 km/h 44% 0 mm 645 W/m2
13:04 11.7 °C -0.8 °C 1023.2 hPa West 8 km/h 8 km/h 42% 0 mm 668 W/m2
13:10 11.4 °C -0.4 °C 1022.9 hPa West 9.7 km/h 9.7 km/h 44% 0 mm 657 W/m2
13:16 11.9 °C 0.1 °C 1022.9 hPa West 8 km/h 9.7 km/h 44% 0 mm 638 W/m2
13:22 11.9 °C -0.3 °C 1022.6 hPa SW 8 km/h 8 km/h 43% 0 mm 650 W/m2
13:28 11.7 °C -0.4 °C 1022.6 hPa WSW 9.7 km/h 14.5 km/h 43% 0 mm 130 W/m2
13:34 11.3 °C -0.5 °C 1022.6 hPa West 6.4 km/h 8 km/h 44% 0 mm 141 W/m2
13:40 12.2 °C 0.3 °C 1022.2 hPa SW 4.8 km/h 6.4 km/h 44% 0 mm 612 W/m2
13:46 12.7 °C 0.4 °C 1022.2 hPa WNW 4.8 km/h 6.4 km/h 43% 0 mm 670 W/m2
13:52 12.8 °C 0.6 °C 1021.9 hPa WSW 4.8 km/h 14.5 km/h 43% 0 mm 666 W/m2
13:58 12.6 °C -0.7 °C 1021.9 hPa West 8 km/h 14.5 km/h 40% 0 mm 657 W/m2
14:04 12.3 °C -1.3 °C 1021.9 hPa SW 9.7 km/h 9.7 km/h 39% 0 mm 643 W/m2
14:10 12.6 °C -1 °C 1021.9 hPa South 9.7 km/h 14.5 km/h 39% 0 mm 610 W/m2
14:16 12.5 °C -1.8 °C 1021.6 hPa WNW 9.7 km/h 14.5 km/h 37% 0 mm 617 W/m2
14:22 12.5 °C -1.4 °C 1021.6 hPa West 6.4 km/h 8 km/h 38% 0 mm 151 W/m2
14:28 12.1 °C -1.8 °C 1021.6 hPa WSW 6.4 km/h 16.1 km/h 38% 0 mm 123 W/m2
14:34 12.2 °C -1 °C 1021.6 hPa West 4.8 km/h 9.7 km/h 40% 0 mm 526 W/m2
14:40 12.4 °C -1.6 °C 1021.6 hPa WNW 6.4 km/h 6.4 km/h 38% 0 mm 543 W/m2
14:46 12.6 °C -2.1 °C 1021.6 hPa WNW 8 km/h 9.7 km/h 36% 0 mm 483 W/m2
14:52 12.5 °C -1.8 °C 1021.2 hPa West 8 km/h 9.7 km/h 37% 0 mm 459 W/m2
14:58 12.5 °C -1.4 °C 1021.2 hPa West 8 km/h 12.9 km/h 38% 0 mm 492 W/m2
15:04 12.9 °C -1.4 °C 1021.2 hPa WSW 6.4 km/h 8 km/h 37% 0 mm 438 W/m2
15:10 12.8 °C -1.2 °C 1021.2 hPa WSW 6.4 km/h 6.4 km/h 38% 0 mm 464 W/m2
15:16 12.8 °C -1.2 °C 1021.2 hPa WNW 4.8 km/h 11.3 km/h 38% 0 mm 473 W/m2
15:22 12.8 °C -1.5 °C 1021.2 hPa WSW 8 km/h 12.9 km/h 37% 0 mm 434 W/m2
15:28 12.8 °C -1.5 °C 1021.2 hPa WSW 8 km/h 12.9 km/h 37% 0 mm 411 W/m2
15:34 12.7 °C -0.9 °C 1020.9 hPa WSW 6.4 km/h 8 km/h 39% 0 mm 74 W/m2
15:40 12.4 °C -1.5 °C 1020.9 hPa WSW 4.8 km/h 4.8 km/h 38% 0 mm 373 W/m2
15:46 12.4 °C -1.2 °C 1020.5 hPa SW 6.4 km/h 6.4 km/h 39% 0 mm 364 W/m2
15:52 12.7 °C -1.3 °C 1020.5 hPa WNW 6.4 km/h 6.4 km/h 38% 0 mm 359 W/m2
15:58 12.8 °C -1.5 °C 1020.5 hPa WSW 6.4 km/h 8 km/h 37% 0 mm 348 W/m2
16:04 12.9 °C -1.1 °C 1020.5 hPa NW 6.4 km/h 6.4 km/h 38% 0 mm 309 W/m2
16:10 12.7 °C -2.4 °C 1020.5 hPa West 6.4 km/h 11.3 km/h 35% 0 mm 288 W/m2
16:16 12.7 °C -2.4 °C 1020.2 hPa WSW 6.4 km/h 11.3 km/h 35% 0 mm 272 W/m2
16:22 12.8 °C -2.3 °C 1020.2 hPa SW 4.8 km/h 6.4 km/h 35% 0 mm 248 W/m2
16:28 12.7 °C -2.8 °C 1020.2 hPa WNW 4.8 km/h 9.7 km/h 34% 0 mm 227 W/m2
16:34 12.6 °C -2.9 °C 1020.2 hPa WSW 4.8 km/h 9.7 km/h 34% 0 mm 209 W/m2
16:40 12.3 °C -2.7 °C 1020.2 hPa West 4.8 km/h 6.4 km/h 35% 0 mm 40 W/m2
16:46 12.2 °C -2.5 °C 1020.2 hPa WNW 4.8 km/h 6.4 km/h 36% 0 mm 37 W/m2
16:54 12.1 °C -2.6 °C 1020.2 hPa SSW 3.2 km/h 4.8 km/h 36% 0 mm 30 W/m2
17:02 11.8 °C -2.8 °C 1020.2 hPa SW 3.2 km/h 3.2 km/h 36% 0 mm 28 W/m2
17:08 11.8 °C -3.2 °C 1020.2 hPa West 4.8 km/h 4.8 km/h 35% 0 mm 26 W/m2
17:14 11.7 °C -3.3 °C 1019.9 hPa WSW 4.8 km/h 4.8 km/h 35% 0 mm 23 W/m2
17:20 11.6 °C -3 °C 1019.9 hPa WSW 3.2 km/h 3.2 km/h 36% 0 mm 21 W/m2
17:26 11.4 °C -3.1 °C 1019.9 hPa SW 1.6 km/h 9.7 km/h 36% 0 mm 18 W/m2
17:32 11.4 °C -2.8 °C 1019.9 hPa SW 3.2 km/h 3.2 km/h 37% 0 mm 12 W/m2
17:38 11.2 °C -3 °C 1019.9 hPa SW 1.6 km/h 6.4 km/h 37% 0 mm 9 W/m2
17:44 11 °C -3.2 °C 1019.9 hPa SW 1.6 km/h 1.6 km/h 37% 0 mm 7 W/m2
17:50 10.8 °C -3 °C 1019.5 hPa Calm     38% 0 mm 0 W/m2
17:56 10.4 °C -3 °C 1019.5 hPa Calm     39% 0 mm 0 W/m2
18:02 10 °C -3 °C 1019.5 hPa Calm     40% 0 mm 0 W/m2
18:10 9.4 °C -2.6 °C 1019.5 hPa Calm     43% 0 mm 0 W/m2
18:16 8.7 °C -2.6 °C 1019.5 hPa Calm     45% 0 mm 0 W/m2
18:22 8.2 °C -2.8 °C 1019.5 hPa Calm     46% 0 mm 0 W/m2
18:28 7.5 °C -2.8 °C 1019.5 hPa Calm     48% 0 mm 0 W/m2
18:34 7.2 °C -3.1 °C 1019.5 hPa Calm     48% 0 mm 0 W/m2
18:40 6.8 °C -2.9 °C 1019.5 hPa Calm     50% 0 mm 0 W/m2
18:46 6.5 °C -2.9 °C 1019.5 hPa Calm     51% 0 mm 0 W/m2
18:52 6.1 °C -2.8 °C 1019.5 hPa Calm     53% 0 mm 0 W/m2
18:58 5.8 °C -3 °C 1019.5 hPa Calm     53% 0 mm 0 W/m2
19:04 5.7 °C -2.7 °C 1019.5 hPa Calm     55% 0 mm 0 W/m2
19:10 5.3 °C -2.5 °C 1019.5 hPa Calm     57% 0 mm 0 W/m2
19:16 5 °C -3.1 °C 1019.2 hPa Calm     56% 0 mm 0 W/m2
19:22 4.8 °C -3 °C 1019.2 hPa Calm     57% 0 mm 0 W/m2
19:28 4.7 °C -2.9 °C 1019.2 hPa Calm     58% 0 mm 0 W/m2
19:34 4.4 °C -2.9 °C 1018.8 hPa Calm     59% 0 mm 0 W/m2
19:40 4.3 °C -3 °C 1018.8 hPa Calm     59% 0 mm 0 W/m2
19:46 4.2 °C -2.9 °C 1018.8 hPa Calm     60% 0 mm 0 W/m2
19:52 4.1 °C -2.8 °C 1018.8 hPa Calm     61% 0 mm 0 W/m2
19:58 3.8 °C -3 °C 1018.8 hPa Calm     61% 0 mm 0 W/m2
20:04 3.7 °C -2.9 °C 1018.8 hPa Calm     62% 0 mm 0 W/m2
20:10 3.4 °C -2.9 °C 1018.8 hPa Calm     63% 0 mm 0 W/m2
20:16 3.3 °C -3.1 °C 1018.8 hPa Calm     63% 0 mm 0 W/m2
20:22 3.3 °C -2.9 °C 1018.8 hPa Calm     64% 0 mm 0 W/m2
20:28 3.2 °C -2.9 °C 1018.8 hPa Calm     64% 0 mm 0 W/m2
20:34 3.3 °C -2.9 °C 1018.5 hPa Calm     64% 0 mm 0 W/m2
20:40 3.4 °C -2.8 °C 1018.5 hPa Calm     64% 0 mm 0 W/m2
20:46 3.6 °C -2.4 °C 1018.5 hPa Calm     65% 0 mm 0 W/m2
20:52 3.5 °C -2.7 °C 1018.5 hPa Calm     64% 0 mm 0 W/m2
20:58 3.4 °C -2.6 °C 1018.5 hPa Calm     65% 0 mm 0 W/m2
21:04 3.3 °C -2.7 °C 1018.5 hPa Calm     65% 0 mm 0 W/m2
21:10 3.2 °C -2.8 °C 1018.5 hPa Calm     65% 0 mm 0 W/m2
21:16 3.1 °C -2.6 °C 1018.5 hPa Calm     66% 0 mm 0 W/m2
21:22 2.9 °C -2.6 °C 1018.2 hPa Calm     67% 0 mm 0 W/m2
21:28 2.6 °C -2.8 °C 1018.5 hPa Calm     68% 0 mm 0 W/m2
21:34 2.4 °C -2.7 °C 1018.5 hPa Calm     69% 0 mm 0 W/m2
21:40 2.4 °C -2.7 °C 1018.2 hPa Calm     69% 0 mm 0 W/m2
21:46 2.5 °C -2.6 °C 1018.2 hPa Calm     69% 0 mm 0 W/m2
21:52 2.6 °C -2.5 °C 1017.8 hPa Calm     69% 0 mm 0 W/m2
21:58 2.6 °C -2.8 °C 1017.8 hPa Calm     68% 0 mm 0 W/m2
22:04 2.4 °C -2.7 °C 1017.8 hPa Calm     69% 0 mm 0 W/m2
22:10 2.3 °C -2.8 °C 1017.8 hPa Calm     69% 0 mm 0 W/m2
22:16 2.3 °C -2.8 °C 1017.8 hPa Calm     69% 0 mm 0 W/m2
22:22 2.5 °C -2.8 °C 1017.5 hPa Calm   1.6 km/h 68% 0 mm 0 W/m2
22:28 2.8 °C -2.9 °C 1017.5 hPa SW 1.6 km/h 4.8 km/h 66% 0 mm 0 W/m2
22:34 3.6 °C -2.8 °C 1017.5 hPa SW 1.6 km/h 3.2 km/h 63% 0 mm 0 W/m2
22:40 4.3 °C -3.1 °C 1017.5 hPa Calm     59% 0 mm 0 W/m2
22:46 4.7 °C -3.4 °C 1017.5 hPa Calm   1.6 km/h 56% 0 mm 0 W/m2
22:52 5.1 °C -3.3 °C 1017.5 hPa Calm   1.6 km/h 55% 0 mm 0 W/m2
22:58 5.2 °C -3.6 °C 1017.5 hPa Calm   1.6 km/h 53% 0 mm 0 W/m2
23:04 5.2 °C -3.6 °C 1017.5 hPa Calm     53% 0 mm 0 W/m2
23:10 4.8 °C -3.2 °C 1017.2 hPa Calm     56% 0 mm 0 W/m2
23:16 3.9 °C -3.2 °C 1017.2 hPa Calm     60% 0 mm 0 W/m2
23:22 3.3 °C -3.3 °C 1017.2 hPa Calm     62% 0 mm 0 W/m2
23:28 2.7 °C -3.4 °C 1017.2 hPa Calm     64% 0 mm 0 W/m2
23:34 2.3 °C -3.2 °C 1017.2 hPa Calm     67% 0 mm 0 W/m2
23:40 2 °C -3.3 °C 1017.2 hPa Calm     68% 0 mm 0 W/m2
23:46 1.8 °C -3.3 °C 1017.2 hPa Calm     69% 0 mm 0 W/m2
23:52 1.5 °C -3.6 °C 1017.2 hPa Calm     69% 0 mm 0 W/m2
23:58 1.3 °C -3.6 °C 1017.2 hPa Calm     70% 0 mm 0 W/m2
Country Meadow, Clay, NY, USA
Compliments of Weather Underground - 2 mb